sensor_id;sensor_type;location;lat;lon;timestamp;P1;durP1;ratioP1;P2;durP2;ratioP2
2213;SDS011;1113;42.018;23.986;2022-08-23T00:00:16;17.87;;;13.40;;
2213;SDS011;1113;42.018;23.986;2022-08-23T00:02:43;16.57;;;13.90;;
2213;SDS011;1113;42.018;23.986;2022-08-23T00:05:09;16.40;;;12.40;;
2213;SDS011;1113;42.018;23.986;2022-08-23T00:07:38;15.00;;;12.60;;
2213;SDS011;1113;42.018;23.986;2022-08-23T00:10:06;13.80;;;12.23;;
2213;SDS011;1113;42.018;23.986;2022-08-23T00:12:33;15.33;;;12.80;;
2213;SDS011;1113;42.018;23.986;2022-08-23T00:15:00;14.67;;;13.27;;
2213;SDS011;1113;42.018;23.986;2022-08-23T00:17:26;19.43;;;13.90;;
2213;SDS011;1113;42.018;23.986;2022-08-23T00:19:53;14.67;;;12.57;;
2213;SDS011;1113;42.018;23.986;2022-08-23T00:22:19;15.47;;;12.60;;
2213;SDS011;1113;42.018;23.986;2022-08-23T00:24:47;15.80;;;12.50;;
2213;SDS011;1113;42.018;23.986;2022-08-23T00:27:15;14.20;;;12.47;;
2213;SDS011;1113;42.018;23.986;2022-08-23T00:29:45;14.57;;;11.27;;
2213;SDS011;1113;42.018;23.986;2022-08-23T00:32:13;14.70;;;11.20;;
2213;SDS011;1113;42.018;23.986;2022-08-23T00:34:40;13.63;;;11.80;;
2213;SDS011;1113;42.018;23.986;2022-08-23T00:37:07;12.43;;;11.20;;
2213;SDS011;1113;42.018;23.986;2022-08-23T00:39:34;13.73;;;11.73;;
2213;SDS011;1113;42.018;23.986;2022-08-23T00:42:05;17.87;;;13.20;;
2213;SDS011;1113;42.018;23.986;2022-08-23T00:44:53;17.53;;;12.43;;
2213;SDS011;1113;42.018;23.986;2022-08-23T00:47:37;15.67;;;13.90;;
2213;SDS011;1113;42.018;23.986;2022-08-23T00:50:08;16.60;;;12.43;;
2213;SDS011;1113;42.018;23.986;2022-08-23T00:52:37;18.20;;;13.50;;
2213;SDS011;1113;42.018;23.986;2022-08-23T00:55:05;15.90;;;13.73;;
2213;SDS011;1113;42.018;23.986;2022-08-23T00:57:33;17.10;;;14.13;;
2213;SDS011;1113;42.018;23.986;2022-08-23T01:00:02;16.17;;;13.83;;
2213;SDS011;1113;42.018;23.986;2022-08-23T01:02:29;21.60;;;14.00;;
2213;SDS011;1113;42.018;23.986;2022-08-23T01:04:56;17.53;;;13.80;;
2213;SDS011;1113;42.018;23.986;2022-08-23T01:07:29;18.97;;;15.10;;
2213;SDS011;1113;42.018;23.986;2022-08-23T01:09:58;18.50;;;15.70;;
2213;SDS011;1113;42.018;23.986;2022-08-23T01:12:27;17.10;;;14.63;;
2213;SDS011;1113;42.018;23.986;2022-08-23T01:14:57;19.50;;;16.50;;
2213;SDS011;1113;42.018;23.986;2022-08-23T01:17:25;21.30;;;18.03;;
2213;SDS011;1113;42.018;23.986;2022-08-23T01:19:54;20.70;;;16.77;;
2213;SDS011;1113;42.018;23.986;2022-08-23T01:22:23;23.73;;;17.30;;
2213;SDS011;1113;42.018;23.986;2022-08-23T01:24:52;24.73;;;18.30;;
2213;SDS011;1113;42.018;23.986;2022-08-23T01:27:19;20.30;;;17.80;;
2213;SDS011;1113;42.018;23.986;2022-08-23T01:29:46;20.60;;;17.77;;
2213;SDS011;1113;42.018;23.986;2022-08-23T01:32:12;22.17;;;17.40;;
2213;SDS011;1113;42.018;23.986;2022-08-23T01:34:39;22.07;;;18.13;;
2213;SDS011;1113;42.018;23.986;2022-08-23T01:37:06;22.83;;;17.00;;
2213;SDS011;1113;42.018;23.986;2022-08-23T01:39:33;20.43;;;15.77;;
2213;SDS011;1113;42.018;23.986;2022-08-23T01:42:01;19.63;;;16.10;;
2213;SDS011;1113;42.018;23.986;2022-08-23T01:44:28;17.87;;;15.33;;
2213;SDS011;1113;42.018;23.986;2022-08-23T01:46:55;18.20;;;15.40;;
2213;SDS011;1113;42.018;23.986;2022-08-23T01:49:21;18.30;;;15.80;;
2213;SDS011;1113;42.018;23.986;2022-08-23T01:51:48;19.57;;;16.13;;
2213;SDS011;1113;42.018;23.986;2022-08-23T01:54:14;20.70;;;16.23;;
2213;SDS011;1113;42.018;23.986;2022-08-23T01:56:41;20.30;;;15.70;;
2213;SDS011;1113;42.018;23.986;2022-08-23T01:59:10;21.60;;;17.67;;
2213;SDS011;1113;42.018;23.986;2022-08-23T02:01:37;24.50;;;16.00;;
2213;SDS011;1113;42.018;23.986;2022-08-23T02:04:04;18.03;;;15.70;;
2213;SDS011;1113;42.018;23.986;2022-08-23T02:06:31;16.87;;;15.07;;
2213;SDS011;1113;42.018;23.986;2022-08-23T02:08:58;20.13;;;14.87;;
2213;SDS011;1113;42.018;23.986;2022-08-23T02:11:30;19.53;;;14.73;;
2213;SDS011;1113;42.018;23.986;2022-08-23T02:13:58;19.60;;;15.20;;
2213;SDS011;1113;42.018;23.986;2022-08-23T02:16:27;22.03;;;15.60;;
2213;SDS011;1113;42.018;23.986;2022-08-23T02:18:55;18.00;;;14.30;;
2213;SDS011;1113;42.018;23.986;2022-08-23T02:21:22;18.33;;;13.50;;
2213;SDS011;1113;42.018;23.986;2022-08-23T02:23:48;16.43;;;13.10;;
2213;SDS011;1113;42.018;23.986;2022-08-23T02:26:16;17.50;;;14.20;;
2213;SDS011;1113;42.018;23.986;2022-08-23T02:28:42;19.33;;;15.00;;
2213;SDS011;1113;42.018;23.986;2022-08-23T02:31:09;17.03;;;13.57;;
2213;SDS011;1113;42.018;23.986;2022-08-23T02:33:37;15.90;;;13.37;;
2213;SDS011;1113;42.018;23.986;2022-08-23T02:36:04;14.50;;;12.73;;
2213;SDS011;1113;42.018;23.986;2022-08-23T02:38:30;18.03;;;14.20;;
2213;SDS011;1113;42.018;23.986;2022-08-23T02:40:58;14.33;;;12.07;;
2213;SDS011;1113;42.018;23.986;2022-08-23T02:43:25;14.90;;;12.07;;
2213;SDS011;1113;42.018;23.986;2022-08-23T02:45:52;14.37;;;12.23;;
2213;SDS011;1113;42.018;23.986;2022-08-23T02:48:18;17.40;;;13.13;;
2213;SDS011;1113;42.018;23.986;2022-08-23T02:50:47;13.10;;;11.33;;
2213;SDS011;1113;42.018;23.986;2022-08-23T02:53:15;12.33;;;11.03;;
2213;SDS011;1113;42.018;23.986;2022-08-23T02:55:44;13.43;;;11.37;;
2213;SDS011;1113;42.018;23.986;2022-08-23T02:58:11;16.33;;;12.40;;
2213;SDS011;1113;42.018;23.986;2022-08-23T03:00:37;16.33;;;11.53;;
2213;SDS011;1113;42.018;23.986;2022-08-23T03:03:04;14.53;;;10.77;;
2213;SDS011;1113;42.018;23.986;2022-08-23T03:05:31;13.10;;;10.23;;
2213;SDS011;1113;42.018;23.986;2022-08-23T03:07:59;17.90;;;12.03;;
2213;SDS011;1113;42.018;23.986;2022-08-23T03:10:26;12.47;;;10.27;;
2213;SDS011;1113;42.018;23.986;2022-08-23T03:12:52;13.70;;;9.80;;
2213;SDS011;1113;42.018;23.986;2022-08-23T03:15:19;17.83;;;10.40;;
2213;SDS011;1113;42.018;23.986;2022-08-23T03:17:45;11.93;;;10.67;;
2213;SDS011;1113;42.018;23.986;2022-08-23T03:20:13;13.30;;;11.10;;
2213;SDS011;1113;42.018;23.986;2022-08-23T03:22:40;13.13;;;11.73;;
2213;SDS011;1113;42.018;23.986;2022-08-23T03:25:08;12.20;;;10.90;;
2213;SDS011;1113;42.018;23.986;2022-08-23T03:27:34;12.27;;;10.97;;
2213;SDS011;1113;42.018;23.986;2022-08-23T03:30:02;15.30;;;13.23;;
2213;SDS011;1113;42.018;23.986;2022-08-23T03:32:29;14.10;;;11.80;;
2213;SDS011;1113;42.018;23.986;2022-08-23T03:34:55;15.07;;;11.90;;
2213;SDS011;1113;42.018;23.986;2022-08-23T03:37:22;13.20;;;11.80;;
2213;SDS011;1113;42.018;23.986;2022-08-23T03:39:48;16.73;;;12.50;;
2213;SDS011;1113;42.018;23.986;2022-08-23T03:42:17;14.93;;;11.40;;
2213;SDS011;1113;42.018;23.986;2022-08-23T03:44:44;14.63;;;12.93;;
2213;SDS011;1113;42.018;23.986;2022-08-23T03:47:11;15.40;;;12.30;;
2213;SDS011;1113;42.018;23.986;2022-08-23T03:49:37;12.47;;;11.17;;
2213;SDS011;1113;42.018;23.986;2022-08-23T03:52:04;13.30;;;11.70;;
2213;SDS011;1113;42.018;23.986;2022-08-23T03:54:31;12.53;;;11.00;;
2213;SDS011;1113;42.018;23.986;2022-08-23T03:56:58;13.87;;;11.00;;
2213;SDS011;1113;42.018;23.986;2022-08-23T03:59:28;11.40;;;10.23;;
2213;SDS011;1113;42.018;23.986;2022-08-23T04:01:55;12.07;;;9.77;;
2213;SDS011;1113;42.018;23.986;2022-08-23T04:04:22;13.13;;;11.73;;
2213;SDS011;1113;42.018;23.986;2022-08-23T04:06:48;15.80;;;13.17;;
2213;SDS011;1113;42.018;23.986;2022-08-23T04:09:15;15.83;;;13.60;;
2213;SDS011;1113;42.018;23.986;2022-08-23T04:11:42;16.70;;;13.73;;
2213;SDS011;1113;42.018;23.986;2022-08-23T04:14:09;15.77;;;13.17;;
2213;SDS011;1113;42.018;23.986;2022-08-23T04:16:38;14.40;;;11.63;;
2213;SDS011;1113;42.018;23.986;2022-08-23T04:19:06;12.00;;;10.70;;
2213;SDS011;1113;42.018;23.986;2022-08-23T04:21:32;16.63;;;11.43;;
2213;SDS011;1113;42.018;23.986;2022-08-23T04:24:00;12.60;;;9.73;;
2213;SDS011;1113;42.018;23.986;2022-08-23T04:26:26;10.60;;;9.30;;
2213;SDS011;1113;42.018;23.986;2022-08-23T04:28:53;11.60;;;9.83;;
2213;SDS011;1113;42.018;23.986;2022-08-23T04:31:20;13.77;;;12.30;;
2213;SDS011;1113;42.018;23.986;2022-08-23T04:33:48;12.87;;;11.50;;
2213;SDS011;1113;42.018;23.986;2022-08-23T04:36:14;17.97;;;13.07;;
2213;SDS011;1113;42.018;23.986;2022-08-23T04:38:41;14.53;;;11.73;;
2213;SDS011;1113;42.018;23.986;2022-08-23T04:41:08;19.60;;;13.43;;
2213;SDS011;1113;42.018;23.986;2022-08-23T04:43:51;16.77;;;13.60;;
2213;SDS011;1113;42.018;23.986;2022-08-23T04:46:20;14.70;;;12.10;;
2213;SDS011;1113;42.018;23.986;2022-08-23T04:48:48;12.30;;;11.10;;
2213;SDS011;1113;42.018;23.986;2022-08-23T04:51:15;13.23;;;10.80;;
2213;SDS011;1113;42.018;23.986;2022-08-23T04:53:41;12.43;;;11.03;;
2213;SDS011;1113;42.018;23.986;2022-08-23T04:56:08;12.57;;;11.27;;
2213;SDS011;1113;42.018;23.986;2022-08-23T04:58:36;13.90;;;12.00;;
2213;SDS011;1113;42.018;23.986;2022-08-23T05:01:04;14.67;;;11.50;;
2213;SDS011;1113;42.018;23.986;2022-08-23T05:03:31;16.70;;;11.60;;
2213;SDS011;1113;42.018;23.986;2022-08-23T05:05:59;14.73;;;13.00;;
2213;SDS011;1113;42.018;23.986;2022-08-23T05:08:26;18.97;;;13.57;;
2213;SDS011;1113;42.018;23.986;2022-08-23T05:10:53;15.27;;;13.20;;
2213;SDS011;1113;42.018;23.986;2022-08-23T05:13:19;16.27;;;14.00;;
2213;SDS011;1113;42.018;23.986;2022-08-23T05:15:48;15.67;;;12.40;;
2213;SDS011;1113;42.018;23.986;2022-08-23T05:18:15;13.73;;;12.30;;
2213;SDS011;1113;42.018;23.986;2022-08-23T05:20:42;13.77;;;12.07;;
2213;SDS011;1113;42.018;23.986;2022-08-23T05:23:10;13.00;;;11.60;;
2213;SDS011;1113;42.018;23.986;2022-08-23T05:25:36;12.30;;;10.50;;
2213;SDS011;1113;42.018;23.986;2022-08-23T05:28:18;12.90;;;11.47;;
2213;SDS011;1113;42.018;23.986;2022-08-23T05:30:52;11.77;;;10.13;;
2213;SDS011;1113;42.018;23.986;2022-08-23T05:33:20;12.57;;;10.20;;
2213;SDS011;1113;42.018;23.986;2022-08-23T05:35:46;14.80;;;11.53;;
2213;SDS011;1113;42.018;23.986;2022-08-23T05:38:14;15.23;;;11.47;;
2213;SDS011;1113;42.018;23.986;2022-08-23T05:40:41;17.00;;;11.73;;
2213;SDS011;1113;42.018;23.986;2022-08-23T05:43:07;17.60;;;10.73;;
2213;SDS011;1113;42.018;23.986;2022-08-23T05:45:34;11.77;;;10.67;;
2213;SDS011;1113;42.018;23.986;2022-08-23T05:48:01;12.13;;;10.77;;
2213;SDS011;1113;42.018;23.986;2022-08-23T05:50:28;13.27;;;11.17;;
2213;SDS011;1113;42.018;23.986;2022-08-23T05:52:54;11.17;;;10.07;;
2213;SDS011;1113;42.018;23.986;2022-08-23T05:55:22;12.77;;;10.30;;
2213;SDS011;1113;42.018;23.986;2022-08-23T05:57:49;12.00;;;10.10;;
2213;SDS011;1113;42.018;23.986;2022-08-23T06:00:15;12.50;;;10.50;;
2213;SDS011;1113;42.018;23.986;2022-08-23T06:02:42;12.83;;;11.53;;
2213;SDS011;1113;42.018;23.986;2022-08-23T06:05:09;18.10;;;11.37;;
2213;SDS011;1113;42.018;23.986;2022-08-23T06:07:35;23.20;;;11.90;;
2213;SDS011;1113;42.018;23.986;2022-08-23T06:10:03;14.53;;;12.03;;
2213;SDS011;1113;42.018;23.986;2022-08-23T06:12:31;11.80;;;10.60;;
2213;SDS011;1113;42.018;23.986;2022-08-23T06:14:58;19.53;;;12.43;;
2213;SDS011;1113;42.018;23.986;2022-08-23T06:17:25;15.13;;;12.00;;
2213;SDS011;1113;42.018;23.986;2022-08-23T06:19:52;18.20;;;13.53;;
2213;SDS011;1113;42.018;23.986;2022-08-23T06:22:18;15.83;;;11.97;;
2213;SDS011;1113;42.018;23.986;2022-08-23T06:24:45;16.67;;;12.20;;
2213;SDS011;1113;42.018;23.986;2022-08-23T06:27:12;14.70;;;13.13;;
2213;SDS011;1113;42.018;23.986;2022-08-23T06:29:40;15.00;;;13.40;;
2213;SDS011;1113;42.018;23.986;2022-08-23T06:32:07;15.63;;;14.13;;
2213;SDS011;1113;42.018;23.986;2022-08-23T06:34:34;15.30;;;13.70;;
2213;SDS011;1113;42.018;23.986;2022-08-23T06:37:02;16.23;;;13.70;;
2213;SDS011;1113;42.018;23.986;2022-08-23T06:39:29;15.83;;;14.10;;
2213;SDS011;1113;42.018;23.986;2022-08-23T06:41:56;16.13;;;13.37;;
2213;SDS011;1113;42.018;23.986;2022-08-23T06:44:24;15.50;;;13.37;;
2213;SDS011;1113;42.018;23.986;2022-08-23T06:46:53;17.60;;;14.33;;
2213;SDS011;1113;42.018;23.986;2022-08-23T06:49:21;18.90;;;13.40;;
2213;SDS011;1113;42.018;23.986;2022-08-23T06:51:49;14.37;;;12.87;;
2213;SDS011;1113;42.018;23.986;2022-08-23T06:54:17;14.50;;;13.10;;
2213;SDS011;1113;42.018;23.986;2022-08-23T06:56:44;18.23;;;14.80;;
2213;SDS011;1113;42.018;23.986;2022-08-23T06:59:12;15.93;;;14.23;;
2213;SDS011;1113;42.018;23.986;2022-08-23T07:01:39;18.10;;;13.27;;
2213;SDS011;1113;42.018;23.986;2022-08-23T07:04:09;15.40;;;13.10;;
2213;SDS011;1113;42.018;23.986;2022-08-23T07:06:36;16.07;;;14.33;;
2213;SDS011;1113;42.018;23.986;2022-08-23T07:09:03;15.87;;;13.53;;
2213;SDS011;1113;42.018;23.986;2022-08-23T07:11:30;16.20;;;14.50;;
2213;SDS011;1113;42.018;23.986;2022-08-23T07:13:57;15.60;;;14.00;;
2213;SDS011;1113;42.018;23.986;2022-08-23T07:16:24;16.70;;;13.97;;
2213;SDS011;1113;42.018;23.986;2022-08-23T07:18:51;15.63;;;13.77;;
2213;SDS011;1113;42.018;23.986;2022-08-23T07:21:21;15.43;;;13.90;;
2213;SDS011;1113;42.018;23.986;2022-08-23T07:23:47;14.30;;;12.80;;
2213;SDS011;1113;42.018;23.986;2022-08-23T07:26:14;16.47;;;14.70;;
2213;SDS011;1113;42.018;23.986;2022-08-23T07:28:41;18.33;;;15.30;;
2213;SDS011;1113;42.018;23.986;2022-08-23T07:31:09;20.17;;;15.50;;
2213;SDS011;1113;42.018;23.986;2022-08-23T07:33:36;15.70;;;14.10;;
2213;SDS011;1113;42.018;23.986;2022-08-23T07:36:03;14.90;;;13.30;;
2213;SDS011;1113;42.018;23.986;2022-08-23T07:38:32;15.13;;;13.33;;
2213;SDS011;1113;42.018;23.986;2022-08-23T07:40:59;18.90;;;15.27;;
2213;SDS011;1113;42.018;23.986;2022-08-23T07:43:25;17.00;;;14.63;;
2213;SDS011;1113;42.018;23.986;2022-08-23T07:45:52;18.83;;;15.23;;
2213;SDS011;1113;42.018;23.986;2022-08-23T07:48:19;17.67;;;14.30;;
2213;SDS011;1113;42.018;23.986;2022-08-23T07:50:49;14.83;;;13.23;;
2213;SDS011;1113;42.018;23.986;2022-08-23T07:53:16;16.07;;;14.47;;
2213;SDS011;1113;42.018;23.986;2022-08-23T07:55:44;17.10;;;14.63;;
2213;SDS011;1113;42.018;23.986;2022-08-23T07:58:11;19.50;;;16.07;;
2213;SDS011;1113;42.018;23.986;2022-08-23T08:00:37;20.17;;;15.53;;
2213;SDS011;1113;42.018;23.986;2022-08-23T08:03:04;19.23;;;17.23;;
2213;SDS011;1113;42.018;23.986;2022-08-23T08:05:30;17.80;;;16.00;;
2213;SDS011;1113;42.018;23.986;2022-08-23T08:07:57;19.10;;;17.10;;
2213;SDS011;1113;42.018;23.986;2022-08-23T08:10:23;21.13;;;18.57;;
2213;SDS011;1113;42.018;23.986;2022-08-23T08:12:51;22.73;;;20.27;;
2213;SDS011;1113;42.018;23.986;2022-08-23T08:15:18;19.70;;;17.27;;
2213;SDS011;1113;42.018;23.986;2022-08-23T08:17:45;19.77;;;16.53;;
2213;SDS011;1113;42.018;23.986;2022-08-23T08:20:12;18.07;;;16.27;;
2213;SDS011;1113;42.018;23.986;2022-08-23T08:22:39;18.47;;;16.67;;
2213;SDS011;1113;42.018;23.986;2022-08-23T08:25:06;24.60;;;22.10;;
2213;SDS011;1113;42.018;23.986;2022-08-23T08:27:32;20.83;;;18.70;;
2213;SDS011;1113;42.018;23.986;2022-08-23T08:30:00;17.60;;;15.80;;
2213;SDS011;1113;42.018;23.986;2022-08-23T08:32:29;18.00;;;16.10;;
2213;SDS011;1113;42.018;23.986;2022-08-23T08:34:56;20.73;;;18.53;;
2213;SDS011;1113;42.018;23.986;2022-08-23T08:37:22;20.40;;;18.30;;
2213;SDS011;1113;42.018;23.986;2022-08-23T08:39:49;21.03;;;18.83;;
2213;SDS011;1113;42.018;23.986;2022-08-23T08:42:22;23.90;;;20.17;;
2213;SDS011;1113;42.018;23.986;2022-08-23T08:44:57;26.33;;;23.63;;
2213;SDS011;1113;42.018;23.986;2022-08-23T08:47:27;19.33;;;17.30;;
2213;SDS011;1113;42.018;23.986;2022-08-23T08:49:56;17.20;;;15.50;;
2213;SDS011;1113;42.018;23.986;2022-08-23T08:52:25;16.83;;;15.13;;
2213;SDS011;1113;42.018;23.986;2022-08-23T08:54:54;18.20;;;16.40;;
2213;SDS011;1113;42.018;23.986;2022-08-23T08:57:21;17.10;;;15.33;;
2213;SDS011;1113;42.018;23.986;2022-08-23T08:59:51;18.10;;;16.30;;
2213;SDS011;1113;42.018;23.986;2022-08-23T09:02:19;17.73;;;15.80;;
2213;SDS011;1113;42.018;23.986;2022-08-23T09:04:47;18.27;;;16.30;;
2213;SDS011;1113;42.018;23.986;2022-08-23T09:07:17;16.30;;;14.67;;
2213;SDS011;1113;42.018;23.986;2022-08-23T09:09:54;18.13;;;14.93;;
2213;SDS011;1113;42.018;23.986;2022-08-23T09:12:24;15.17;;;13.60;;
2213;SDS011;1113;42.018;23.986;2022-08-23T09:17:39;16.43;;;14.70;;
2213;SDS011;1113;42.018;23.986;2022-08-23T09:20:09;19.27;;;15.33;;
2213;SDS011;1113;42.018;23.986;2022-08-23T09:22:38;17.10;;;15.30;;
2213;SDS011;1113;42.018;23.986;2022-08-23T09:25:06;17.20;;;14.53;;
2213;SDS011;1113;42.018;23.986;2022-08-23T09:27:33;16.63;;;14.93;;
2213;SDS011;1113;42.018;23.986;2022-08-23T09:30:01;16.67;;;14.77;;
2213;SDS011;1113;42.018;23.986;2022-08-23T09:32:29;21.13;;;15.90;;
2213;SDS011;1113;42.018;23.986;2022-08-23T09:35:07;20.80;;;18.70;;
2213;SDS011;1113;42.018;23.986;2022-08-23T09:37:45;20.03;;;18.00;;
2213;SDS011;1113;42.018;23.986;2022-08-23T09:40:14;20.37;;;17.50;;
2213;SDS011;1113;42.018;23.986;2022-08-23T09:42:41;19.67;;;17.70;;
2213;SDS011;1113;42.018;23.986;2022-08-23T09:45:23;19.27;;;17.20;;
2213;SDS011;1113;42.018;23.986;2022-08-23T09:47:49;17.23;;;15.40;;
2213;SDS011;1113;42.018;23.986;2022-08-23T09:50:22;21.13;;;16.50;;
2213;SDS011;1113;42.018;23.986;2022-08-23T09:52:52;17.53;;;15.73;;
2213;SDS011;1113;42.018;23.986;2022-08-23T09:55:25;14.70;;;13.20;;
2213;SDS011;1113;42.018;23.986;2022-08-23T09:57:52;14.50;;;13.00;;
2213;SDS011;1113;42.018;23.986;2022-08-23T10:00:22;15.27;;;13.13;;
2213;SDS011;1113;42.018;23.986;2022-08-23T10:02:49;13.47;;;12.07;;
2213;SDS011;1113;42.018;23.986;2022-08-23T10:05:29;15.57;;;12.80;;
2213;SDS011;1113;42.018;23.986;2022-08-23T10:08:02;14.67;;;12.90;;
2213;SDS011;1113;42.018;23.986;2022-08-23T10:10:31;14.27;;;12.87;;
2213;SDS011;1113;42.018;23.986;2022-08-23T10:13:00;13.90;;;12.60;;
2213;SDS011;1113;42.018;23.986;2022-08-23T10:15:32;14.47;;;12.40;;
2213;SDS011;1113;42.018;23.986;2022-08-23T10:18:03;13.50;;;12.17;;
2213;SDS011;1113;42.018;23.986;2022-08-23T10:20:34;14.73;;;13.33;;
2213;SDS011;1113;42.018;23.986;2022-08-23T10:23:08;15.17;;;13.50;;
2213;SDS011;1113;42.018;23.986;2022-08-23T10:25:40;15.07;;;13.50;;
2213;SDS011;1113;42.018;23.986;2022-08-23T10:28:11;14.57;;;13.07;;
2213;SDS011;1113;42.018;23.986;2022-08-23T10:30:59;14.73;;;13.37;;
2213;SDS011;1113;42.018;23.986;2022-08-23T10:33:29;13.30;;;12.00;;
2213;SDS011;1113;42.018;23.986;2022-08-23T10:35:59;14.47;;;12.97;;
2213;SDS011;1113;42.018;23.986;2022-08-23T10:41:15;13.63;;;12.40;;
2213;SDS011;1113;42.018;23.986;2022-08-23T10:43:44;13.37;;;12.07;;
2213;SDS011;1113;42.018;23.986;2022-08-23T10:46:14;14.43;;;10.90;;
2213;SDS011;1113;42.018;23.986;2022-08-23T10:48:44;12.50;;;11.30;;
2213;SDS011;1113;42.018;23.986;2022-08-23T10:51:15;12.93;;;11.73;;
2213;SDS011;1113;42.018;23.986;2022-08-23T10:53:43;14.60;;;13.13;;
2213;SDS011;1113;42.018;23.986;2022-08-23T10:56:12;13.30;;;11.90;;
2213;SDS011;1113;42.018;23.986;2022-08-23T10:58:47;14.17;;;12.77;;
2213;SDS011;1113;42.018;23.986;2022-08-23T11:03:42;11.60;;;10.40;;
2213;SDS011;1113;42.018;23.986;2022-08-23T11:06:22;12.03;;;10.90;;
2213;SDS011;1113;42.018;23.986;2022-08-23T11:08:55;12.40;;;11.10;;
2213;SDS011;1113;42.018;23.986;2022-08-23T11:11:37;13.40;;;12.10;;
2213;SDS011;1113;42.018;23.986;2022-08-23T11:14:06;14.20;;;11.70;;
2213;SDS011;1113;42.018;23.986;2022-08-23T11:16:35;12.77;;;11.57;;
2213;SDS011;1113;42.018;23.986;2022-08-23T11:19:10;13.27;;;11.90;;
2213;SDS011;1113;42.018;23.986;2022-08-23T11:21:40;13.23;;;11.93;;
2213;SDS011;1113;42.018;23.986;2022-08-23T11:24:28;12.83;;;11.63;;
2213;SDS011;1113;42.018;23.986;2022-08-23T11:27:00;12.87;;;11.57;;
2213;SDS011;1113;42.018;23.986;2022-08-23T11:29:36;11.57;;;10.47;;
2213;SDS011;1113;42.018;23.986;2022-08-23T11:32:13;13.07;;;11.77;;
2213;SDS011;1113;42.018;23.986;2022-08-23T11:34:46;12.57;;;11.30;;
2213;SDS011;1113;42.018;23.986;2022-08-23T11:37:26;12.40;;;11.13;;
2213;SDS011;1113;42.018;23.986;2022-08-23T11:40:04;10.73;;;9.63;;
2213;SDS011;1113;42.018;23.986;2022-08-23T11:42:43;10.73;;;9.63;;
2213;SDS011;1113;42.018;23.986;2022-08-23T11:45:21;11.70;;;9.33;;
2213;SDS011;1113;42.018;23.986;2022-08-23T11:47:49;10.50;;;9.50;;
2213;SDS011;1113;42.018;23.986;2022-08-23T11:50:22;8.40;;;7.50;;
2213;SDS011;1113;42.018;23.986;2022-08-23T11:53:00;8.03;;;7.23;;
2213;SDS011;1113;42.018;23.986;2022-08-23T11:58:18;8.43;;;7.60;;
2213;SDS011;1113;42.018;23.986;2022-08-23T12:00:56;9.47;;;8.10;;
2213;SDS011;1113;42.018;23.986;2022-08-23T12:03:31;9.03;;;8.23;;
2213;SDS011;1113;42.018;23.986;2022-08-23T12:06:06;8.27;;;7.47;;
2213;SDS011;1113;42.018;23.986;2022-08-23T12:08:47;9.13;;;7.70;;
2213;SDS011;1113;42.018;23.986;2022-08-23T12:11:14;9.13;;;8.33;;
2213;SDS011;1113;42.018;23.986;2022-08-23T12:13:49;8.80;;;7.90;;
2213;SDS011;1113;42.018;23.986;2022-08-23T12:16:28;8.90;;;8.00;;
2213;SDS011;1113;42.018;23.986;2022-08-23T12:18:56;9.17;;;8.27;;
2213;SDS011;1113;42.018;23.986;2022-08-23T12:21:26;11.50;;;8.80;;
2213;SDS011;1113;42.018;23.986;2022-08-23T12:23:54;10.50;;;9.50;;
2213;SDS011;1113;42.018;23.986;2022-08-23T12:26:23;15.57;;;12.13;;
2213;SDS011;1113;42.018;23.986;2022-08-23T12:28:51;10.67;;;9.67;;
2213;SDS011;1113;42.018;23.986;2022-08-23T12:31:20;11.90;;;10.70;;
2213;SDS011;1113;42.018;23.986;2022-08-23T12:36:32;14.83;;;11.20;;
2213;SDS011;1113;42.018;23.986;2022-08-23T12:39:03;10.90;;;9.83;;
2213;SDS011;1113;42.018;23.986;2022-08-23T12:41:32;10.63;;;9.63;;
2213;SDS011;1113;42.018;23.986;2022-08-23T12:44:02;11.63;;;10.50;;
2213;SDS011;1113;42.018;23.986;2022-08-23T12:49:29;6.13;;;5.53;;
2213;SDS011;1113;42.018;23.986;2022-08-23T12:52:05;6.20;;;5.60;;
2213;SDS011;1113;42.018;23.986;2022-08-23T12:54:41;7.73;;;7.10;;
2213;SDS011;1113;42.018;23.986;2022-08-23T12:57:14;9.57;;;8.47;;
2213;SDS011;1113;42.018;23.986;2022-08-23T13:00:03;10.87;;;8.20;;
2213;SDS011;1113;42.018;23.986;2022-08-23T13:02:43;10.90;;;8.13;;
2213;SDS011;1113;42.018;23.986;2022-08-23T13:05:18;11.87;;;9.53;;
2213;SDS011;1113;42.018;23.986;2022-08-23T13:07:50;9.00;;;8.10;;
2213;SDS011;1113;42.018;23.986;2022-08-23T13:10:17;9.77;;;7.37;;
2213;SDS011;1113;42.018;23.986;2022-08-23T13:12:46;9.73;;;7.53;;
2213;SDS011;1113;42.018;23.986;2022-08-23T13:15:12;9.07;;;7.67;;
2213;SDS011;1113;42.018;23.986;2022-08-23T13:17:59;8.57;;;7.77;;
2213;SDS011;1113;42.018;23.986;2022-08-23T13:20:26;9.57;;;8.57;;
2213;SDS011;1113;42.018;23.986;2022-08-23T13:22:58;7.50;;;6.80;;
2213;SDS011;1113;42.018;23.986;2022-08-23T13:25:26;7.80;;;7.10;;
2213;SDS011;1113;42.018;23.986;2022-08-23T13:27:54;9.30;;;7.30;;
2213;SDS011;1113;42.018;23.986;2022-08-23T13:30:22;8.50;;;7.50;;
2213;SDS011;1113;42.018;23.986;2022-08-23T13:32:49;8.60;;;7.60;;
2213;SDS011;1113;42.018;23.986;2022-08-23T13:35:23;7.53;;;6.83;;
2213;SDS011;1113;42.018;23.986;2022-08-23T13:37:51;8.17;;;7.33;;
2213;SDS011;1113;42.018;23.986;2022-08-23T13:40:21;8.37;;;7.57;;
2213;SDS011;1113;42.018;23.986;2022-08-23T13:42:50;10.10;;;7.93;;
2213;SDS011;1113;42.018;23.986;2022-08-23T13:45:19;18.17;;;9.97;;
2213;SDS011;1113;42.018;23.986;2022-08-23T13:47:48;15.70;;;8.60;;
2213;SDS011;1113;42.018;23.986;2022-08-23T13:50:16;11.60;;;7.30;;
2213;SDS011;1113;42.018;23.986;2022-08-23T13:52:45;8.40;;;7.30;;
2213;SDS011;1113;42.018;23.986;2022-08-23T13:55:13;8.00;;;7.20;;
2213;SDS011;1113;42.018;23.986;2022-08-23T13:57:42;8.43;;;7.63;;
2213;SDS011;1113;42.018;23.986;2022-08-23T14:00:10;7.53;;;6.83;;
2213;SDS011;1113;42.018;23.986;2022-08-23T14:02:45;7.93;;;7.13;;
2213;SDS011;1113;42.018;23.986;2022-08-23T14:05:13;7.33;;;6.00;;
2213;SDS011;1113;42.018;23.986;2022-08-23T14:07:40;7.90;;;6.93;;
2213;SDS011;1113;42.018;23.986;2022-08-23T14:10:07;6.97;;;6.27;;
2213;SDS011;1113;42.018;23.986;2022-08-23T14:12:34;7.43;;;6.73;;
2213;SDS011;1113;42.018;23.986;2022-08-23T14:15:02;7.40;;;6.60;;
2213;SDS011;1113;42.018;23.986;2022-08-23T14:17:30;7.13;;;6.03;;
2213;SDS011;1113;42.018;23.986;2022-08-23T14:19:57;7.77;;;6.73;;
2213;SDS011;1113;42.018;23.986;2022-08-23T14:22:26;8.33;;;6.83;;
2213;SDS011;1113;42.018;23.986;2022-08-23T14:24:52;6.73;;;6.03;;
2213;SDS011;1113;42.018;23.986;2022-08-23T14:27:19;5.90;;;5.40;;
2213;SDS011;1113;42.018;23.986;2022-08-23T14:29:45;6.50;;;5.83;;
2213;SDS011;1113;42.018;23.986;2022-08-23T14:32:13;7.97;;;6.10;;
2213;SDS011;1113;42.018;23.986;2022-08-23T14:34:40;9.93;;;8.10;;
2213;SDS011;1113;42.018;23.986;2022-08-23T14:37:06;8.20;;;7.37;;
2213;SDS011;1113;42.018;23.986;2022-08-23T14:39:33;9.07;;;7.63;;
2213;SDS011;1113;42.018;23.986;2022-08-23T14:41:59;8.27;;;7.07;;
2213;SDS011;1113;42.018;23.986;2022-08-23T14:44:26;8.53;;;7.50;;
2213;SDS011;1113;42.018;23.986;2022-08-23T14:46:53;11.00;;;8.83;;
2213;SDS011;1113;42.018;23.986;2022-08-23T14:49:21;14.70;;;9.20;;
2213;SDS011;1113;42.018;23.986;2022-08-23T14:51:48;10.00;;;9.10;;
2213;SDS011;1113;42.018;23.986;2022-08-23T14:54:16;14.03;;;11.30;;
2213;SDS011;1113;42.018;23.986;2022-08-23T14:56:43;11.23;;;10.00;;
2213;SDS011;1113;42.018;23.986;2022-08-23T14:59:09;11.67;;;10.50;;
2213;SDS011;1113;42.018;23.986;2022-08-23T15:01:36;11.43;;;9.67;;
2213;SDS011;1113;42.018;23.986;2022-08-23T15:07:11;13.30;;;9.90;;